sensor_id;sensor_type;location;lat;lon;timestamp;pressure;altitude;pressure_sealevel;temperature;humidity
6030;BME280;3043;42.682;23.376;2022-09-24T00:00:40;95282.31;;;8.67;100.00
6030;BME280;3043;42.682;23.376;2022-09-24T00:03:05;95285.69;;;8.72;100.00
6030;BME280;3043;42.682;23.376;2022-09-24T00:05:36;95283.06;;;8.75;100.00
6030;BME280;3043;42.682;23.376;2022-09-24T00:08:01;95288.25;;;8.74;100.00
6030;BME280;3043;42.682;23.376;2022-09-24T00:10:26;95282.25;;;8.73;100.00
6030;BME280;3043;42.682;23.376;2022-09-24T00:12:52;95289.97;;;8.75;100.00
6030;BME280;3043;42.682;23.376;2022-09-24T00:15:17;95290.16;;;8.58;100.00
6030;BME280;3043;42.682;23.376;2022-09-24T00:17:43;95289.34;;;8.56;100.00
6030;BME280;3043;42.682;23.376;2022-09-24T00:20:08;95288.50;;;8.56;100.00
6030;BME280;3043;42.682;23.376;2022-09-24T00:22:34;95281.91;;;8.34;100.00
6030;BME280;3043;42.682;23.376;2022-09-24T00:24:59;95284.53;;;8.29;100.00
6030;BME280;3043;42.682;23.376;2022-09-24T00:27:43;95277.56;;;8.34;100.00
6030;BME280;3043;42.682;23.376;2022-09-24T00:30:09;95276.63;;;8.43;100.00
6030;BME280;3043;42.682;23.376;2022-09-24T00:32:34;95281.75;;;8.44;100.00
6030;BME280;3043;42.682;23.376;2022-09-24T00:34:59;95290.28;;;8.49;100.00
6030;BME280;3043;42.682;23.376;2022-09-24T00:37:25;95290.25;;;8.52;100.00
6030;BME280;3043;42.682;23.376;2022-09-24T00:39:52;95280.84;;;8.48;100.00
6030;BME280;3043;42.682;23.376;2022-09-24T00:42:18;95277.41;;;8.46;100.00
6030;BME280;3043;42.682;23.376;2022-09-24T00:44:53;95273.06;;;8.51;100.00
6030;BME280;3043;42.682;23.376;2022-09-24T00:47:34;95269.69;;;8.45;100.00
6030;BME280;3043;42.682;23.376;2022-09-24T00:50:19;95275.84;;;8.36;100.00
6030;BME280;3043;42.682;23.376;2022-09-24T00:52:52;95272.38;;;8.37;100.00
6030;BME280;3043;42.682;23.376;2022-09-24T00:55:20;95267.25;;;8.34;100.00
6030;BME280;3043;42.682;23.376;2022-09-24T00:57:50;95272.81;;;7.97;100.00
6030;BME280;3043;42.682;23.376;2022-09-24T01:00:17;95266.13;;;7.79;100.00
6030;BME280;3043;42.682;23.376;2022-09-24T01:02:45;95261.06;;;7.67;100.00
6030;BME280;3043;42.682;23.376;2022-09-24T01:05:11;95254.13;;;7.75;100.00
6030;BME280;3043;42.682;23.376;2022-09-24T01:07:37;95259.25;;;7.78;100.00
6030;BME280;3043;42.682;23.376;2022-09-24T01:10:03;95256.69;;;7.75;100.00
6030;BME280;3043;42.682;23.376;2022-09-24T01:12:46;95256.88;;;7.57;100.00
6030;BME280;3043;42.682;23.376;2022-09-24T01:15:23;95256.03;;;7.55;100.00
6030;BME280;3043;42.682;23.376;2022-09-24T01:18:09;95259.50;;;7.51;100.00
6030;BME280;3043;42.682;23.376;2022-09-24T01:26:14;95261.56;;;7.05;100.00
6030;BME280;3043;42.682;23.376;2022-09-24T01:32:05;95254.81;;;6.94;100.00
6030;BME280;3043;42.682;23.376;2022-09-24T01:34:46;95247.19;;;6.77;100.00
6030;BME280;3043;42.682;23.376;2022-09-24T01:37:15;95258.28;;;6.84;100.00
6030;BME280;3043;42.682;23.376;2022-09-24T01:39:43;95254.88;;;6.85;100.00
6030;BME280;3043;42.682;23.376;2022-09-24T01:42:11;95254.94;;;6.73;100.00
6030;BME280;3043;42.682;23.376;2022-09-24T01:44:38;95254.13;;;6.65;100.00
6030;BME280;3043;42.682;23.376;2022-09-24T01:47:09;95251.59;;;6.56;100.00
6030;BME280;3043;42.682;23.376;2022-09-24T01:49:37;95255.88;;;6.55;100.00
6030;BME280;3043;42.682;23.376;2022-09-24T01:52:05;95253.31;;;6.57;100.00
6030;BME280;3043;42.682;23.376;2022-09-24T01:54:38;95249.84;;;6.62;100.00
6030;BME280;3043;42.682;23.376;2022-09-24T01:57:10;95247.88;;;6.99;100.00
6030;BME280;3043;42.682;23.376;2022-09-24T01:59:41;95248.84;;;6.84;100.00
6030;BME280;3043;42.682;23.376;2022-09-24T02:04:43;95254.91;;;6.79;100.00
6030;BME280;3043;42.682;23.376;2022-09-24T02:07:29;95261.81;;;6.71;100.00
6030;BME280;3043;42.682;23.376;2022-09-24T02:09:57;95261.66;;;6.92;100.00
6030;BME280;3043;42.682;23.376;2022-09-24T02:12:30;95263.38;;;6.90;100.00
6030;BME280;3043;42.682;23.376;2022-09-24T02:15:16;95270.31;;;6.82;100.00
6030;BME280;3043;42.682;23.376;2022-09-24T02:17:47;95277.06;;;6.98;100.00
6030;BME280;3043;42.682;23.376;2022-09-24T02:20:19;95267.69;;;6.91;100.00
6030;BME280;3043;42.682;23.376;2022-09-24T02:22:47;95271.13;;;6.85;100.00
6030;BME280;3043;42.682;23.376;2022-09-24T02:25:18;95278.88;;;6.81;100.00
6030;BME280;3043;42.682;23.376;2022-09-24T02:27:45;95278.94;;;6.72;100.00
6030;BME280;3043;42.682;23.376;2022-09-24T02:30:10;95289.25;;;6.69;100.00
6030;BME280;3043;42.682;23.376;2022-09-24T02:32:39;95292.72;;;6.63;100.00
6030;BME280;3043;42.682;23.376;2022-09-24T02:35:08;95290.19;;;6.56;100.00
6030;BME280;3043;42.682;23.376;2022-09-24T02:37:36;95295.34;;;6.53;100.00
6030;BME280;3043;42.682;23.376;2022-09-24T02:40:04;95295.38;;;6.45;100.00
6030;BME280;3043;42.682;23.376;2022-09-24T02:42:31;95297.94;;;6.44;100.00
6030;BME280;3043;42.682;23.376;2022-09-24T02:44:57;95292.81;;;6.44;100.00
6030;BME280;3043;42.682;23.376;2022-09-24T02:47:25;95297.06;;;6.45;100.00
6030;BME280;3043;42.682;23.376;2022-09-24T02:49:50;95292.78;;;6.50;100.00
6030;BME280;3043;42.682;23.376;2022-09-24T02:52:16;95306.47;;;6.49;100.00
6030;BME280;3043;42.682;23.376;2022-09-24T02:54:43;95302.22;;;6.46;100.00
6030;BME280;3043;42.682;23.376;2022-09-24T02:57:09;95303.13;;;6.35;100.00
6030;BME280;3043;42.682;23.376;2022-09-24T02:59:34;95308.28;;;6.35;100.00
6030;BME280;3043;42.682;23.376;2022-09-24T03:02:00;95309.97;;;6.36;100.00
6030;BME280;3043;42.682;23.376;2022-09-24T03:04:26;95309.09;;;6.34;100.00
6030;BME280;3043;42.682;23.376;2022-09-24T03:06:53;95303.16;;;6.29;100.00
6030;BME280;3043;42.682;23.376;2022-09-24T03:09:19;95310.78;;;6.48;100.00
6030;BME280;3043;42.682;23.376;2022-09-24T03:11:44;95309.09;;;6.37;100.00
6030;BME280;3043;42.682;23.376;2022-09-24T03:14:11;95307.41;;;6.34;100.00
6030;BME280;3043;42.682;23.376;2022-09-24T03:16:37;95308.25;;;6.41;100.00
6030;BME280;3043;42.682;23.376;2022-09-24T03:19:02;95305.72;;;6.32;100.00
6030;BME280;3043;42.682;23.376;2022-09-24T03:21:28;95308.28;;;6.35;100.00
6030;BME280;3043;42.682;23.376;2022-09-24T03:23:53;95308.28;;;6.32;100.00
6030;BME280;3043;42.682;23.376;2022-09-24T03:26:19;95311.69;;;6.34;100.00
6030;BME280;3043;42.682;23.376;2022-09-24T03:28:44;95310.88;;;6.29;100.00
6030;BME280;3043;42.682;23.376;2022-09-24T03:31:10;95315.16;;;6.24;100.00
6030;BME280;3043;42.682;23.376;2022-09-24T03:33:37;95320.28;;;6.24;100.00
6030;BME280;3043;42.682;23.376;2022-09-24T03:36:17;95320.31;;;6.12;100.00
6030;BME280;3043;42.682;23.376;2022-09-24T03:38:45;95325.47;;;6.12;100.00
6030;BME280;3043;42.682;23.376;2022-09-24T03:41:11;95329.75;;;6.11;100.00
6030;BME280;3043;42.682;23.376;2022-09-24T03:43:37;95332.34;;;6.01;100.00
6030;BME280;3043;42.682;23.376;2022-09-24T03:46:04;95328.06;;;6.01;100.00
6030;BME280;3043;42.682;23.376;2022-09-24T03:48:35;95331.47;;;6.03;100.00
6030;BME280;3043;42.682;23.376;2022-09-24T03:51:09;95331.47;;;6.03;100.00
6030;BME280;3043;42.682;23.376;2022-09-24T03:53:35;95322.94;;;5.94;100.00
6030;BME280;3043;42.682;23.376;2022-09-24T03:56:00;95335.78;;;5.88;100.00
6030;BME280;3043;42.682;23.376;2022-09-24T03:58:31;95332.34;;;5.89;100.00
6030;BME280;3043;42.682;23.376;2022-09-24T04:00:57;95332.34;;;5.95;100.00
6030;BME280;3043;42.682;23.376;2022-09-24T04:03:24;95339.16;;;6.02;100.00
6030;BME280;3043;42.682;23.376;2022-09-24T04:05:50;95329.78;;;5.96;100.00
6030;BME280;3043;42.682;23.376;2022-09-24T04:08:16;95339.19;;;5.94;100.00
6030;BME280;3043;42.682;23.376;2022-09-24T04:10:44;95334.03;;;5.99;100.00
6030;BME280;3043;42.682;23.376;2022-09-24T04:13:10;95335.78;;;6.00;100.00
6030;BME280;3043;42.682;23.376;2022-09-24T04:15:36;95337.47;;;6.01;100.00
6030;BME280;3043;42.682;23.376;2022-09-24T04:18:02;95331.44;;;6.12;100.00
6030;BME280;3043;42.682;23.376;2022-09-24T04:20:28;95339.16;;;6.20;100.00
6030;BME280;3043;42.682;23.376;2022-09-24T04:22:56;95340.88;;;6.18;100.00
6030;BME280;3043;42.682;23.376;2022-09-24T04:25:23;95346.00;;;6.15;100.00
6030;BME280;3043;42.682;23.376;2022-09-24T04:28:00;95337.28;;;6.61;100.00
6030;BME280;3043;42.682;23.376;2022-09-24T04:30:26;95350.88;;;6.87;100.00
6030;BME280;3043;42.682;23.376;2022-09-24T04:32:52;95352.34;;;7.33;100.00
6030;BME280;3043;42.682;23.376;2022-09-24T04:35:21;95358.81;;;7.88;100.00
6030;BME280;3043;42.682;23.376;2022-09-24T04:37:47;95363.66;;;8.21;100.00
6030;BME280;3043;42.682;23.376;2022-09-24T04:40:14;95370.16;;;8.58;100.00
6030;BME280;3043;42.682;23.376;2022-09-24T04:42:41;95376.53;;;9.00;100.00
6030;BME280;3043;42.682;23.376;2022-09-24T04:45:08;95381.88;;;9.52;100.00
6030;BME280;3043;42.682;23.376;2022-09-24T04:47:37;95373.34;;;10.00;100.00
6030;BME280;3043;42.682;23.376;2022-09-24T04:50:05;95375.94;;;10.50;100.00
6030;BME280;3043;42.682;23.376;2022-09-24T04:52:31;95376.41;;;11.14;100.00
6030;BME280;3043;42.682;23.376;2022-09-24T04:54:58;95377.56;;;11.80;100.00
6030;BME280;3043;42.682;23.376;2022-09-24T04:57:24;95384.63;;;12.10;100.00
6030;BME280;3043;42.682;23.376;2022-09-24T04:59:50;95379.81;;;12.63;100.00
6030;BME280;3043;42.682;23.376;2022-09-24T05:02:15;95381.78;;;13.48;100.00
6030;BME280;3043;42.682;23.376;2022-09-24T05:04:41;95388.47;;;13.84;100.00
6030;BME280;3043;42.682;23.376;2022-09-24T05:07:08;95391.09;;;14.10;100.00
6030;BME280;3043;42.682;23.376;2022-09-24T05:09:34;95406.06;;;14.31;100.00
6030;BME280;3043;42.682;23.376;2022-09-24T05:12:00;95391.56;;;14.50;100.00
6030;BME280;3043;42.682;23.376;2022-09-24T05:14:26;95396.28;;;14.90;95.23
6030;BME280;3043;42.682;23.376;2022-09-24T05:16:52;95397.84;;;15.18;90.70
6030;BME280;3043;42.682;23.376;2022-09-24T05:19:17;95385.13;;;16.01;86.78
6030;BME280;3043;42.682;23.376;2022-09-24T05:21:43;95393.19;;;15.95;80.52
6030;BME280;3043;42.682;23.376;2022-09-24T05:24:08;95394.19;;;16.15;79.53
6030;BME280;3043;42.682;23.376;2022-09-24T05:26:34;95392.16;;;16.43;74.47
6030;BME280;3043;42.682;23.376;2022-09-24T05:29:18;95391.00;;;17.11;70.59
6030;BME280;3043;42.682;23.376;2022-09-24T05:31:43;95404.28;;;17.84;62.99
6030;BME280;3043;42.682;23.376;2022-09-24T05:34:09;95405.91;;;17.49;61.08
6030;BME280;3043;42.682;23.376;2022-09-24T05:36:35;95407.84;;;17.83;57.65
6030;BME280;3043;42.682;23.376;2022-09-24T05:39:00;95414.97;;;17.61;60.06
6030;BME280;3043;42.682;23.376;2022-09-24T05:41:26;95409.53;;;17.84;59.07
6030;BME280;3043;42.682;23.376;2022-09-24T05:43:52;95410.69;;;17.97;57.31
6030;BME280;3043;42.682;23.376;2022-09-24T05:46:17;95416.88;;;17.57;59.69
6030;BME280;3043;42.682;23.376;2022-09-24T05:48:43;95419.31;;;17.99;59.25
6030;BME280;3043;42.682;23.376;2022-09-24T05:51:08;95415.22;;;17.94;59.53
6030;BME280;3043;42.682;23.376;2022-09-24T05:53:33;95419.63;;;18.47;57.44
6030;BME280;3043;42.682;23.376;2022-09-24T05:55:59;95410.75;;;19.02;53.62
6030;BME280;3043;42.682;23.376;2022-09-24T05:58:25;95423.88;;;19.19;52.63
6030;BME280;3043;42.682;23.376;2022-09-24T06:00:51;95416.00;;;19.02;53.54
6030;BME280;3043;42.682;23.376;2022-09-24T06:03:17;95423.25;;;19.31;52.51
6030;BME280;3043;42.682;23.376;2022-09-24T06:05:45;95420.78;;;20.26;50.65
6030;BME280;3043;42.682;23.376;2022-09-24T06:08:13;95415.34;;;20.45;48.70
6030;BME280;3043;42.682;23.376;2022-09-24T06:10:40;95421.31;;;21.23;46.78
6030;BME280;3043;42.682;23.376;2022-09-24T06:13:07;95426.09;;;21.60;44.96
6030;BME280;3043;42.682;23.376;2022-09-24T06:15:32;95431.28;;;20.42;46.91
6030;BME280;3043;42.682;23.376;2022-09-24T06:17:59;95426.31;;;20.98;46.87
6030;BME280;3043;42.682;23.376;2022-09-24T06:20:24;95430.19;;;20.46;47.67
6030;BME280;3043;42.682;23.376;2022-09-24T06:22:54;95426.50;;;20.95;47.56
6030;BME280;3043;42.682;23.376;2022-09-24T06:25:19;95434.72;;;21.48;45.62
6030;BME280;3043;42.682;23.376;2022-09-24T06:27:52;95434.53;;;21.95;43.43
6030;BME280;3043;42.682;23.376;2022-09-24T06:30:17;95440.34;;;21.28;45.12
6030;BME280;3043;42.682;23.376;2022-09-24T06:35:08;95440.97;;;21.61;44.46
6030;BME280;3043;42.682;23.376;2022-09-24T06:37:34;95435.13;;;21.70;43.94
6030;BME280;3043;42.682;23.376;2022-09-24T06:39:59;95438.38;;;21.89;43.81
6030;BME280;3043;42.682;23.376;2022-09-24T06:42:25;95437.88;;;22.79;42.28
6030;BME280;3043;42.682;23.376;2022-09-24T06:44:51;95440.69;;;22.91;41.15
6030;BME280;3043;42.682;23.376;2022-09-24T06:47:16;95442.28;;;22.66;41.61
6030;BME280;3043;42.682;23.376;2022-09-24T06:49:42;95435.66;;;23.52;39.43
6030;BME280;3043;42.682;23.376;2022-09-24T06:52:07;95444.03;;;22.93;41.04
6030;BME280;3043;42.682;23.376;2022-09-24T06:54:33;95434.75;;;22.87;40.74
6030;BME280;3043;42.682;23.376;2022-09-24T06:56:58;95434.91;;;22.57;41.20
6030;BME280;3043;42.682;23.376;2022-09-24T06:59:24;95433.94;;;23.26;40.10
6030;BME280;3043;42.682;23.376;2022-09-24T07:01:49;95440.22;;;23.50;39.96
6030;BME280;3043;42.682;23.376;2022-09-24T07:04:15;95444.13;;;23.18;40.24
6030;BME280;3043;42.682;23.376;2022-09-24T07:06:40;95444.19;;;23.43;39.91
6030;BME280;3043;42.682;23.376;2022-09-24T07:09:24;95435.16;;;23.72;38.93
6030;BME280;3043;42.682;23.376;2022-09-24T07:11:49;95444.25;;;23.68;39.02
6030;BME280;3043;42.682;23.376;2022-09-24T07:14:16;95443.19;;;23.83;38.68
6030;BME280;3043;42.682;23.376;2022-09-24T07:16:42;95446.53;;;23.47;38.11
6030;BME280;3043;42.682;23.376;2022-09-24T07:19:08;95444.88;;;23.84;38.19
6030;BME280;3043;42.682;23.376;2022-09-24T07:21:33;95442.16;;;23.98;37.98
6030;BME280;3043;42.682;23.376;2022-09-24T07:23:59;95439.94;;;24.17;37.67
6030;BME280;3043;42.682;23.376;2022-09-24T07:26:28;95437.22;;;24.67;37.05
6030;BME280;3043;42.682;23.376;2022-09-24T07:28:54;95441.38;;;25.06;36.43
6030;BME280;3043;42.682;23.376;2022-09-24T07:31:19;95431.94;;;26.05;34.58
6030;BME280;3043;42.682;23.376;2022-09-24T07:33:45;95422.25;;;25.93;34.37
6030;BME280;3043;42.682;23.376;2022-09-24T07:36:11;95427.09;;;25.88;34.80
6030;BME280;3043;42.682;23.376;2022-09-24T07:38:36;95434.94;;;26.89;32.47
6030;BME280;3043;42.682;23.376;2022-09-24T07:41:01;95437.53;;;26.25;33.60
6030;BME280;3043;42.682;23.376;2022-09-24T07:43:32;95433.59;;;25.95;33.96
6030;BME280;3043;42.682;23.376;2022-09-24T07:45:57;95429.22;;;25.72;34.66
6030;BME280;3043;42.682;23.376;2022-09-24T07:48:23;95432.50;;;26.97;32.16
6030;BME280;3043;42.682;23.376;2022-09-24T07:50:48;95425.75;;;26.93;32.51
6030;BME280;3043;42.682;23.376;2022-09-24T07:53:15;95434.53;;;25.72;33.55
6030;BME280;3043;42.682;23.376;2022-09-24T07:55:41;95427.31;;;25.74;34.09
6030;BME280;3043;42.682;23.376;2022-09-24T07:58:07;95429.88;;;25.98;33.56
6030;BME280;3043;42.682;23.376;2022-09-24T08:00:35;95427.09;;;25.19;34.62
6030;BME280;3043;42.682;23.376;2022-09-24T08:03:01;95420.25;;;24.57;35.98
6030;BME280;3043;42.682;23.376;2022-09-24T08:05:27;95424.81;;;25.38;34.45
6030;BME280;3043;42.682;23.376;2022-09-24T08:07:54;95419.84;;;25.10;34.58
6030;BME280;3043;42.682;23.376;2022-09-24T08:10:20;95427.84;;;25.21;34.75
6030;BME280;3043;42.682;23.376;2022-09-24T08:12:46;95422.44;;;24.99;35.19
6030;BME280;3043;42.682;23.376;2022-09-24T08:15:11;95425.13;;;25.10;35.19
6030;BME280;3043;42.682;23.376;2022-09-24T08:17:37;95419.91;;;26.13;32.94
6030;BME280;3043;42.682;23.376;2022-09-24T08:20:03;95433.16;;;26.35;32.79
6030;BME280;3043;42.682;23.376;2022-09-24T08:22:28;95421.31;;;25.83;33.39
6030;BME280;3043;42.682;23.376;2022-09-24T08:24:54;95417.97;;;26.03;33.06
6030;BME280;3043;42.682;23.376;2022-09-24T08:27:20;95422.78;;;26.32;32.16
6030;BME280;3043;42.682;23.376;2022-09-24T08:29:47;95422.88;;;25.75;32.86
6030;BME280;3043;42.682;23.376;2022-09-24T08:32:13;95429.44;;;25.00;34.01
6030;BME280;3043;42.682;23.376;2022-09-24T08:34:38;95406.88;;;25.18;34.10
6030;BME280;3043;42.682;23.376;2022-09-24T08:37:05;95409.38;;;25.43;33.96
6030;BME280;3043;42.682;23.376;2022-09-24T08:39:34;95406.88;;;25.18;34.43
6030;BME280;3043;42.682;23.376;2022-09-24T08:42:11;95408.25;;;25.00;34.24
6030;BME280;3043;42.682;23.376;2022-09-24T08:44:43;95407.16;;;25.26;34.41
6030;BME280;3043;42.682;23.376;2022-09-24T08:50:12;95408.34;;;25.22;34.37
6030;BME280;3043;42.682;23.376;2022-09-24T08:52:45;95404.31;;;25.40;34.23
6030;BME280;3043;42.682;23.376;2022-09-24T08:55:21;95403.00;;;26.13;33.16
6030;BME280;3043;42.682;23.376;2022-09-24T08:58:11;95401.41;;;26.66;32.65
6030;BME280;3043;42.682;23.376;2022-09-24T09:09:16;95380.69;;;27.55;31.11
6030;BME280;3043;42.682;23.376;2022-09-24T09:11:46;95387.94;;;27.53;30.80
6030;BME280;3043;42.682;23.376;2022-09-24T09:14:17;95381.97;;;28.02;29.93
6030;BME280;3043;42.682;23.376;2022-09-24T09:17:11;95375.56;;;27.42;30.71
6030;BME280;3043;42.682;23.376;2022-09-24T09:19:40;95386.16;;;26.90;31.64
6030;BME280;3043;42.682;23.376;2022-09-24T09:22:14;95383.25;;;27.25;31.08
6030;BME280;3043;42.682;23.376;2022-09-24T09:24:52;95380.69;;;27.55;30.73
6030;BME280;3043;42.682;23.376;2022-09-24T09:27:20;95368.63;;;27.92;30.54
6030;BME280;3043;42.682;23.376;2022-09-24T09:29:49;95372.06;;;28.13;31.00
6030;BME280;3043;42.682;23.376;2022-09-24T09:35:23;95360.16;;;28.47;29.96
6030;BME280;3043;42.682;23.376;2022-09-24T09:38:21;95362.56;;;28.20;29.91
6030;BME280;3043;42.682;23.376;2022-09-24T09:43:18;95352.94;;;27.16;31.58
6030;BME280;3043;42.682;23.376;2022-09-24T09:48:35;95349.88;;;26.58;30.69
6030;BME280;3043;42.682;23.376;2022-09-24T09:51:04;95346.06;;;25.95;31.98
6030;BME280;3043;42.682;23.376;2022-09-24T09:53:30;95337.59;;;25.46;33.67
6030;BME280;3043;42.682;23.376;2022-09-24T09:56:04;95336.78;;;25.68;32.69
6030;BME280;3043;42.682;23.376;2022-09-24T09:58:36;95334.25;;;25.66;33.13
6030;BME280;3043;42.682;23.376;2022-09-24T10:01:09;95325.41;;;24.98;34.53
6030;BME280;3043;42.682;23.376;2022-09-24T10:03:46;95327.41;;;25.18;33.11
6030;BME280;3043;42.682;23.376;2022-09-24T10:06:25;95320.50;;;25.05;33.31
6030;BME280;3043;42.682;23.376;2022-09-24T10:08:50;95314.34;;;25.04;33.71
6030;BME280;3043;42.682;23.376;2022-09-24T10:11:17;95312.94;;;25.22;33.50
6030;BME280;3043;42.682;23.376;2022-09-24T10:13:43;95319.75;;;25.48;32.54
6030;BME280;3043;42.682;23.376;2022-09-24T10:16:11;95313.75;;;25.35;32.86
6030;BME280;3043;42.682;23.376;2022-09-24T10:18:41;95302.56;;;25.19;33.12
6030;BME280;3043;42.682;23.376;2022-09-24T10:21:09;95305.53;;;25.49;32.92
6030;BME280;3043;42.682;23.376;2022-09-24T10:23:43;95294.59;;;25.87;32.81
6030;BME280;3043;42.682;23.376;2022-09-24T10:26:13;95301.41;;;26.45;32.38
6030;BME280;3043;42.682;23.376;2022-09-24T10:28:44;95302.53;;;26.74;30.69
6030;BME280;3043;42.682;23.376;2022-09-24T10:31:30;95297.50;;;26.71;30.22
6030;BME280;3043;42.682;23.376;2022-09-24T10:33:59;95299.75;;;26.75;31.19
6030;BME280;3043;42.682;23.376;2022-09-24T10:36:27;95296.59;;;27.02;30.09
6030;BME280;3043;42.682;23.376;2022-09-24T10:41:30;95291.81;;;26.22;30.67
6030;BME280;3043;42.682;23.376;2022-09-24T10:43:56;95287.97;;;25.59;32.12
6030;BME280;3043;42.682;23.376;2022-09-24T10:49:49;95277.13;;;25.73;30.97
6030;BME280;3043;42.682;23.376;2022-09-24T10:52:52;95282.41;;;25.95;31.50
6030;BME280;3043;42.682;23.376;2022-09-24T11:01:16;95267.31;;;24.73;31.71
6030;BME280;3043;42.682;23.376;2022-09-24T11:20:08;95268.63;;;23.72;30.75
6030;BME280;3043;42.682;23.376;2022-09-24T11:38:56;95241.47;;;24.64;29.18
6030;BME280;3043;42.682;23.376;2022-09-24T11:41:48;95239.50;;;24.44;29.11
6030;BME280;3043;42.682;23.376;2022-09-24T11:52:41;95229.16;;;24.41;28.79
6030;BME280;3043;42.682;23.376;2022-09-24T12:00:43;95216.25;;;23.41;30.07
6030;BME280;3043;42.682;23.376;2022-09-24T12:05:47;95217.31;;;23.13;29.74
6030;BME280;3043;42.682;23.376;2022-09-24T12:08:27;95211.94;;;22.90;30.35
6030;BME280;3043;42.682;23.376;2022-09-24T12:13:26;95199.16;;;23.09;30.25
6030;BME280;3043;42.682;23.376;2022-09-24T12:15:55;95210.03;;;23.17;30.73
6030;BME280;3043;42.682;23.376;2022-09-24T12:18:26;95210.03;;;23.04;31.17
6030;BME280;3043;42.682;23.376;2022-09-24T12:20:57;95204.13;;;23.13;30.91
6030;BME280;3043;42.682;23.376;2022-09-24T12:23:29;95215.00;;;23.09;30.90
6030;BME280;3043;42.682;23.376;2022-09-24T12:25:57;95213.00;;;23.00;30.57
6030;BME280;3043;42.682;23.376;2022-09-24T12:28:25;95212.69;;;22.92;31.44
6030;BME280;3043;42.682;23.376;2022-09-24T12:31:25;95207.66;;;22.49;31.67
6030;BME280;3043;42.682;23.376;2022-09-24T12:36:40;95213.00;;;21.96;32.73
6030;BME280;3043;42.682;23.376;2022-09-24T12:39:11;95203.53;;;22.06;32.22
6030;BME280;3043;42.682;23.376;2022-09-24T12:41:44;95199.56;;;22.13;32.33
6030;BME280;3043;42.682;23.376;2022-09-24T12:46:47;95211.31;;;22.47;32.32
6030;BME280;3043;42.682;23.376;2022-09-24T12:49:28;95207.50;;;22.52;31.87
6030;BME280;3043;42.682;23.376;2022-09-24T12:52:00;95203.06;;;22.26;31.82
6030;BME280;3043;42.682;23.376;2022-09-24T12:54:36;95192.38;;;22.15;33.01
6030;BME280;3043;42.682;23.376;2022-09-24T13:02:53;95188.72;;;21.91;32.81
6030;BME280;3043;42.682;23.376;2022-09-24T13:10:56;95182.81;;;21.47;33.18
6030;BME280;3043;42.682;23.376;2022-09-24T13:13:27;95181.91;;;21.34;33.64
6030;BME280;3043;42.682;23.376;2022-09-24T13:16:06;95175.97;;;21.31;33.36
6030;BME280;3043;42.682;23.376;2022-09-24T13:18:41;95176.66;;;21.34;33.05
6030;BME280;3043;42.682;23.376;2022-09-24T13:21:17;95171.97;;;21.25;33.41
6030;BME280;3043;42.682;23.376;2022-09-24T13:23:48;95173.72;;;21.39;33.64
6030;BME280;3043;42.682;23.376;2022-09-24T13:26:26;95166.69;;;21.25;33.93
6030;BME280;3043;42.682;23.376;2022-09-24T13:28:56;95164.88;;;21.40;33.08
6030;BME280;3043;42.682;23.376;2022-09-24T13:34:26;95165.31;;;21.46;33.56
6030;BME280;3043;42.682;23.376;2022-09-24T13:36:54;95167.41;;;21.27;33.87
6030;BME280;3043;42.682;23.376;2022-09-24T13:44:48;95154.66;;;21.21;33.67
6030;BME280;3043;42.682;23.376;2022-09-24T13:47:44;95155.31;;;21.25;34.22
6030;BME280;3043;42.682;23.376;2022-09-24T13:50:31;95147.50;;;21.23;34.66
6030;BME280;3043;42.682;23.376;2022-09-24T13:53:03;95142.94;;;21.39;34.75
6030;BME280;3043;42.682;23.376;2022-09-24T13:55:44;95141.31;;;21.51;35.05
6030;BME280;3043;42.682;23.376;2022-09-24T13:58:36;95132.41;;;21.39;34.39
6030;BME280;3043;42.682;23.376;2022-09-24T14:01:39;95132.53;;;21.64;34.05
6030;BME280;3043;42.682;23.376;2022-09-24T14:04:17;95132.28;;;21.55;33.83
6030;BME280;3043;42.682;23.376;2022-09-24T14:06:48;95134.59;;;21.59;33.78
6030;BME280;3043;42.682;23.376;2022-09-24T14:09:28;95137.41;;;21.70;33.88
6030;BME280;3043;42.682;23.376;2022-09-24T14:11:56;95123.81;;;21.50;34.05
6030;BME280;3043;42.682;23.376;2022-09-24T14:14:24;95135.56;;;21.58;34.00
6030;BME280;3043;42.682;23.376;2022-09-24T14:16:52;95132.22;;;21.69;33.92
6030;BME280;3043;42.682;23.376;2022-09-24T14:19:20;95132.94;;;21.58;34.04
6030;BME280;3043;42.682;23.376;2022-09-24T14:21:50;95136.75;;;21.40;34.45
6030;BME280;3043;42.682;23.376;2022-09-24T14:24:22;95133.91;;;21.43;34.18
6030;BME280;3043;42.682;23.376;2022-09-24T14:27:02;95134.50;;;21.34;34.04
6030;BME280;3043;42.682;23.376;2022-09-24T14:32:30;95122.22;;;21.21;34.48
6030;BME280;3043;42.682;23.376;2022-09-24T14:34:58;95130.41;;;21.16;34.71
6030;BME280;3043;42.682;23.376;2022-09-24T14:37:33;95124.75;;;20.94;34.92
6030;BME280;3043;42.682;23.376;2022-09-24T14:40:20;95124.22;;;20.75;36.07
6030;BME280;3043;42.682;23.376;2022-09-24T14:42:57;95132.69;;;20.66;35.78
6030;BME280;3043;42.682;23.376;2022-09-24T14:45:35;95135.31;;;20.66;36.16
6030;BME280;3043;42.682;23.376;2022-09-24T14:48:27;95136.06;;;20.68;35.78
6030;BME280;3043;42.682;23.376;2022-09-24T14:50:53;95136.44;;;20.76;36.00
6030;BME280;3043;42.682;23.376;2022-09-24T14:53:33;95132.19;;;20.87;36.44
6030;BME280;3043;42.682;23.376;2022-09-24T14:56:00;95135.13;;;21.11;36.21
6030;BME280;3043;42.682;23.376;2022-09-24T14:58:33;95130.41;;;21.16;36.59
6030;BME280;3043;42.682;23.376;2022-09-24T15:01:13;95135.88;;;21.13;36.98
6030;BME280;3043;42.682;23.376;2022-09-24T15:03:47;95132.50;;;21.11;37.00
6030;BME280;3043;42.682;23.376;2022-09-24T15:06:21;95131.50;;;21.26;37.00
6030;BME280;3043;42.682;23.376;2022-09-24T15:08:54;95137.16;;;21.34;37.54
6030;BME280;3043;42.682;23.376;2022-09-24T15:11:23;95138.25;;;21.30;38.10
6030;BME280;3043;42.682;23.376;2022-09-24T15:14:10;95140.28;;;21.13;38.82
6030;BME280;3043;42.682;23.376;2022-09-24T15:16:37;95137.38;;;20.75;40.59
6030;BME280;3043;42.682;23.376;2022-09-24T15:21:31;95136.53;;;20.88;40.67
6030;BME280;3043;42.682;23.376;2022-09-24T15:23:57;95132.09;;;20.89;41.28
6030;BME280;3043;42.682;23.376;2022-09-24T15:26:27;95137.53;;;20.86;41.56
6030;BME280;3043;42.682;23.376;2022-09-24T15:28:56;95144.31;;;20.76;42.03
6030;BME280;3043;42.682;23.376;2022-09-24T15:31:22;95144.31;;;20.62;43.20